Time;durP1;ratioP1;P1;durP2;ratioP2;P2;SDS_P1;SDS_P2;PMS_P1;PMS_P2;Temp;Humidity;BMP_temperature;BMP_pressure;BME280_temperature;BME280_humidity;BME280_pressure;Samples;Min_cycle;Max_cycle;Signal;HPM_P1;HPM_P2
2021/03/21 00:00:17;;;;;;;10.50;6.20;;;0.00;91.00;;;;;;5089605;28;20251;-57
2021/03/21 00:02:44;;;;;;;15.90;6.82;;;-0.10;90.80;;;;;;5079213;28;20227;-57
2021/03/21 00:05:12;;;;;;;9.52;6.30;;;-0.10;90.50;;;;;;5095252;28;20202;-56
2021/03/21 00:07:39;;;;;;;10.30;7.35;;;-0.10;90.90;;;;;;5092747;28;20202;-56
2021/03/21 00:10:06;;;;;;;11.00;6.18;;;0.00;90.60;;;;;;5085818;28;20260;-56
2021/03/21 00:12:33;;;;;;;11.73;6.43;;;-0.30;91.40;;;;;;5077386;28;20527;-58
2021/03/21 00:14:59;;;;;;;11.20;7.47;;;-0.30;91.30;;;;;;5092609;28;20277;-56
2021/03/21 00:17:26;;;;;;;10.13;5.43;;;-0.10;91.00;;;;;;5092367;28;20233;-58
2021/03/21 00:19:53;;;;;;;10.98;5.40;;;0.00;90.70;;;;;;5077494;28;20203;-57
2021/03/21 00:22:19;;;;;;;8.90;5.93;;;0.10;90.40;;;;;;5077454;28;20213;-57
2021/03/21 00:24:46;;;;;;;10.57;5.45;;;0.20;90.40;;;;;;5077098;28;20209;-55
2021/03/21 00:27:13;;;;;;;8.68;5.85;;;0.20;90.50;;;;;;5077529;28;20272;-57
2021/03/21 00:29:41;;;;;;;9.43;6.22;;;0.20;90.40;;;;;;5090493;28;20206;-61
2021/03/21 00:32:08;;;;;;;11.57;6.20;;;0.10;90.40;;;;;;5089123;28;20207;-57
2021/03/21 00:34:35;;;;;;;12.35;6.10;;;-0.10;91.00;;;;;;5079404;28;20210;-58
2021/03/21 00:37:02;;;;;;;8.77;4.78;;;0.00;90.90;;;;;;5094930;28;20233;-57
2021/03/21 00:39:28;;;;;;;10.68;5.18;;;0.30;90.10;;;;;;5095554;28;20727;-56
2021/03/21 00:41:55;;;;;;;9.07;7.55;;;0.30;90.40;;;;;;5092933;28;20224;-57
2021/03/21 00:44:22;;;;;;;10.75;6.10;;;0.50;90.20;;;;;;5086247;28;20495;-57
2021/03/21 00:46:48;;;;;;;11.68;6.05;;;0.60;90.20;;;;;;5091225;28;20213;-55
2021/03/21 00:49:15;;;;;;;9.82;4.93;;;0.50;90.60;;;;;;5084783;28;20203;-56
2021/03/21 00:51:42;;;;;;;6.60;5.15;;;1.10;90.60;;;;;;5076173;28;20493;-57
2021/03/21 00:54:08;;;;;;;9.65;6.22;;;1.60;91.30;;;;;;5083235;28;20238;-57
2021/03/21 00:56:40;;;;;;;7.93;6.22;;;0.50;90.80;;;;;;5094057;28;20392;-59
2021/03/21 00:59:08;;;;;;;12.30;7.85;;;0.50;90.80;;;;;;5077864;28;20213;-58
2021/03/21 01:01:35;;;;;;;17.95;11.30;;;0.50;90.60;;;;;;5082706;28;20210;-57
2021/03/21 01:04:03;;;;;;;21.58;9.15;;;0.30;91.20;;;;;;5086115;28;20424;-57
2021/03/21 01:06:30;;;;;;;22.08;10.90;;;0.40;91.20;;;;;;5077271;28;20202;-57
2021/03/21 01:08:59;;;;;;;19.48;10.65;;;0.50;90.90;;;;;;5081989;28;20228;-57
2021/03/21 01:11:32;;;;;;;26.98;11.88;;;0.60;90.70;;;;;;5081974;28;20249;-57
2021/03/21 01:13:59;;;;;;;18.85;10.90;;;0.50;90.70;;;;;;5077324;28;20264;-61
2021/03/21 01:16:29;;;;;;;17.52;7.70;;;0.50;90.70;;;;;;5077339;28;20282;-57
2021/03/21 01:18:56;;;;;;;22.23;10.48;;;0.30;91.00;;;;;;5076801;28;20210;-54
2021/03/21 01:21:25;;;;;;;25.23;13.43;;;0.40;91.20;;;;;;5091990;28;20203;-58
2021/03/21 01:23:51;;;;;;;16.63;8.65;;;0.60;90.80;;;;;;5086191;28;20207;-56
2021/03/21 01:26:21;;;;;;;15.80;9.50;;;0.60;90.90;;;;;;5077909;28;20223;-56
2021/03/21 01:28:48;;;;;;;19.65;12.32;;;0.50;91.10;;;;;;5090351;28;20216;-58
2021/03/21 01:31:19;;;;;;;23.05;11.35;;;0.50;91.20;;;;;;5081736;28;20510;-56
2021/03/21 01:33:46;;;;;;;30.42;12.82;;;0.30;91.30;;;;;;5086781;28;20238;-57
2021/03/21 01:36:17;;;;;;;20.45;11.02;;;0.20;91.50;;;;;;5088340;28;20265;-57
2021/03/21 01:38:44;;;;;;;11.52;7.10;;;0.90;92.30;;;;;;5076344;28;20208;-57
2021/03/21 01:41:18;;;;;;;13.25;8.35;;;0.20;91.90;;;;;;5088628;28;20212;-60
2021/03/21 01:43:45;;;;;;;7.20;6.50;;;0.20;91.90;;;;;;5087508;28;20210;-58
2021/03/21 01:46:35;;;;;;;7.50;5.28;;;0.10;91.80;;;;;;5086681;28;20213;-56
2021/03/21 01:49:14;;;;;;;9.40;5.78;;;0.20;91.70;;;;;;5079133;28;20203;-57
2021/03/21 01:51:42;;;;;;;15.63;8.32;;;0.20;91.80;;;;;;5088782;28;20263;-58
2021/03/21 01:54:12;;;;;;;10.13;7.35;;;0.00;92.20;;;;;;5085236;28;20571;-58
2021/03/21 01:56:40;;;;;;;8.27;7.03;;;0.40;92.10;;;;;;5091768;28;20304;-57
2021/03/21 01:59:09;;;;;;;12.75;7.35;;;0.30;91.60;;;;;;5080856;28;20315;-58
2021/03/21 02:01:36;;;;;;;13.43;8.43;;;0.40;91.60;;;;;;5085989;28;20215;-56
2021/03/21 02:04:04;;;;;;;10.68;6.75;;;0.40;91.50;;;;;;5080519;28;20206;-55
2021/03/21 02:06:37;;;;;;;10.85;7.15;;;0.50;91.40;;;;;;5093879;28;20211;-56
2021/03/21 02:09:32;;;;;;;11.63;7.57;;;0.50;91.10;;;;;;5082487;28;20220;-55
2021/03/21 02:12:17;;;;;;;12.73;7.15;;;0.50;91.30;;;;;;5080215;28;20225;-58
2021/03/21 02:15:15;;;;;;;9.15;7.05;;;0.70;91.30;;;;;;5079613;28;20493;-56
2021/03/21 02:18:05;;;;;;;11.45;6.35;;;0.60;91.20;;;;;;5092289;28;20203;-58
2021/03/21 02:20:52;;;;;;;9.57;6.88;;;0.80;91.40;;;;;;5079813;28;20199;-56
2021/03/21 02:23:38;;;;;;;8.75;7.35;;;0.80;91.20;;;;;;5079782;28;20221;-58
2021/03/21 02:26:17;;;;;;;9.13;6.47;;;0.60;91.50;;;;;;5089532;28;20218;-57
2021/03/21 02:29:32;;;;;;;7.63;6.72;;;0.60;92.00;;;;;;5088784;28;20393;-58
2021/03/21 02:32:20;;;;;;;6.65;5.63;;;0.60;91.30;;;;;;5076741;28;20652;-57
2021/03/21 02:34:50;;;;;;;11.05;7.07;;;0.80;91.40;;;;;;5089461;28;20203;-58
2021/03/21 02:37:36;;;;;;;12.10;7.47;;;0.60;91.60;;;;;;5085122;28;20237;-58
2021/03/21 02:40:09;;;;;;;11.30;6.75;;;0.60;91.40;;;;;;5088192;28;20198;-57
2021/03/21 02:42:41;;;;;;;9.48;6.95;;;0.60;91.50;;;;;;5078940;28;20217;-59
2021/03/21 02:45:20;;;;;;;8.25;6.65;;;0.70;91.30;;;;;;5080049;28;20207;-56
2021/03/21 02:47:49;;;;;;;15.15;6.50;;;0.70;91.50;;;;;;5088434;28;20270;-56
2021/03/21 02:50:36;;;;;;;7.47;6.50;;;0.70;91.90;;;;;;5078624;28;20432;-55
2021/03/21 02:53:39;;;;;;;8.60;6.45;;;0.50;92.10;;;;;;5080926;28;20286;-55
2021/03/21 02:56:07;;;;;;;12.30;7.18;;;0.60;92.00;;;;;;5084685;28;20216;-57
2021/03/21 02:58:40;;;;;;;8.65;5.95;;;0.50;91.90;;;;;;5097027;28;20214;-57
2021/03/21 03:01:12;;;;;;;9.85;7.18;;;0.50;92.30;;;;;;5079296;28;20270;-56
2021/03/21 03:03:44;;;;;;;12.73;7.13;;;0.50;92.30;;;;;;5090854;28;20214;-58
2021/03/21 03:06:18;;;;;;;11.50;7.45;;;0.60;92.60;;;;;;5096494;28;20247;-56
2021/03/21 03:08:49;;;;;;;10.02;7.90;;;0.60;92.50;;;;;;5097044;28;20236;-57
2021/03/21 03:11:23;;;;;;;9.70;6.80;;;0.60;92.50;;;;;;5084292;28;20249;-56
2021/03/21 03:13:59;;;;;;;9.95;7.38;;;0.70;92.40;;;;;;5096440;28;20391;-56
2021/03/21 03:16:52;;;;;;;8.38;7.50;;;0.60;93.00;;;;;;5090623;28;20209;-58
2021/03/21 03:19:37;;;;;;;10.85;7.57;;;0.50;93.10;;;;;;5064556;28;20222;-59
2021/03/21 03:22:11;;;;;;;9.18;6.97;;;0.60;92.80;;;;;;5078684;28;20489;-57
2021/03/21 03:25:01;;;;;;;8.80;7.07;;;0.50;93.10;;;;;;5077881;28;20431;-57
2021/03/21 03:27:33;;;;;;;12.20;7.35;;;0.50;92.60;;;;;;5078683;28;20222;-57
2021/03/21 03:30:08;;;;;;;10.30;7.60;;;0.60;92.40;;;;;;5090038;28;20385;-57
2021/03/21 03:32:34;;;;;;;12.30;7.25;;;0.60;92.20;;;;;;5093267;28;20300;-57
2021/03/21 03:35:04;;;;;;;10.60;7.80;;;0.60;92.50;;;;;;5096541;28;20405;-58
2021/03/21 03:37:30;;;;;;;12.05;7.53;;;0.40;92.90;;;;;;5098155;28;20475;-57
2021/03/21 03:39:57;;;;;;;11.20;8.18;;;0.40;92.50;;;;;;5098751;28;20206;-56
2021/03/21 03:42:38;;;;;;;8.80;7.80;;;0.50;92.90;;;;;;5080894;28;20214;-57
2021/03/21 03:45:17;;;;;;;9.10;8.10;;;0.50;92.40;;;;;;5088487;28;20206;-57
2021/03/21 03:48:12;;;;;;;9.85;6.78;;;0.60;92.60;;;;;;5079453;28;20485;-60
2021/03/21 03:50:57;;;;;;;11.80;8.30;;;0.60;92.50;;;;;;5077133;28;20213;-55
2021/03/21 03:53:48;;;;;;;11.80;7.82;;;0.70;92.20;;;;;;5093461;28;20268;-56
2021/03/21 03:56:16;;;;;;;14.05;8.30;;;0.70;92.20;;;;;;5086553;28;20206;-57
2021/03/21 03:59:13;;;;;;;20.15;9.80;;;0.70;92.50;;;;;;5079712;28;20207;-57
2021/03/21 04:01:59;;;;;;;12.07;7.80;;;0.70;92.60;;;;;;5084363;28;20206;-57
2021/03/21 04:04:54;;;;;;;12.73;8.20;;;0.70;92.30;;;;;;5090389;28;20230;-58
2021/03/21 04:07:47;;;;;;;9.80;7.45;;;0.70;92.00;;;;;;5078669;28;20207;-59
2021/03/21 04:10:35;;;;;;;9.32;8.32;;;0.80;92.00;;;;;;5077573;28;20201;-57
2021/03/21 04:13:17;;;;;;;11.85;8.38;;;0.80;91.90;;;;;;5095509;28;20879;-58
2021/03/21 04:15:48;;;;;;;10.93;8.07;;;0.90;91.90;;;;;;5087132;28;20210;-58
2021/03/21 04:18:40;;;;;;;10.48;8.13;;;0.70;92.20;;;;;;5076973;28;20207;-57
2021/03/21 04:21:29;;;;;;;11.32;8.25;;;0.70;92.30;;;;;;5088912;28;20215;-57
2021/03/21 04:24:11;;;;;;;10.68;8.30;;;0.80;91.90;;;;;;5084465;28;20244;-58
2021/03/21 04:26:52;;;;;;;8.77;7.53;;;0.90;92.10;;;;;;5081644;28;20234;-59
2021/03/21 04:29:24;;;;;;;11.52;7.32;;;0.90;92.00;;;;;;5096651;28;20526;-62
2021/03/21 04:31:56;;;;;;;10.27;7.93;;;1.00;91.80;;;;;;5079986;28;20229;-59
2021/03/21 04:34:25;;;;;;;12.20;7.60;;;1.50;91.80;;;;;;5084807;28;20226;-57
2021/03/21 04:36:55;;;;;;;13.82;8.35;;;1.00;91.50;;;;;;5096100;28;20239;-57
2021/03/21 04:39:27;;;;;;;10.85;8.05;;;0.90;91.90;;;;;;5097671;28;20209;-58
2021/03/21 04:42:16;;;;;;;9.30;6.85;;;1.00;91.80;;;;;;5082161;28;20210;-59
2021/03/21 04:44:54;;;;;;;11.77;7.60;;;0.90;91.60;;;;;;5086943;28;20214;-59
2021/03/21 04:47:41;;;;;;;8.68;7.07;;;0.90;91.70;;;;;;5093574;28;20194;-60
2021/03/21 04:50:08;;;;;;;8.02;7.30;;;1.10;91.40;;;;;;5089323;28;20201;-60
2021/03/21 04:52:49;;;;;;;10.50;7.20;;;1.10;91.60;;;;;;5091464;28;20272;-58
2021/03/21 04:55:19;;;;;;;9.48;7.72;;;1.20;91.10;;;;;;5089375;28;20298;-58
2021/03/21 04:57:56;;;;;;;12.30;8.52;;;1.20;91.00;;;;;;5076882;28;20237;-58
2021/03/21 05:00:46;;;;;;;10.68;8.05;;;1.20;91.30;;;;;;5075730;28;20519;-56
2021/03/21 05:03:27;;;;;;;8.63;7.82;;;1.10;91.80;;;;;;5077551;28;20233;-56
2021/03/21 05:06:01;;;;;;;10.10;7.15;;;1.10;91.80;;;;;;5076064;28;20268;-57
2021/03/21 05:08:44;;;;;;;12.98;7.97;;;1.10;92.20;;;;;;5083822;28;20208;-57
2021/03/21 05:11:12;;;;;;;13.18;8.02;;;1.00;92.50;;;;;;5080074;28;20511;-57
2021/03/21 05:13:58;;;;;;;13.73;9.98;;;1.20;92.50;;;;;;5087009;28;20239;-57
2021/03/21 05:16:42;;;;;;;9.10;7.63;;;1.30;92.40;;;;;;5092024;28;20531;-58
2021/03/21 05:19:20;;;;;;;8.95;7.57;;;1.50;92.30;;;;;;5095224;28;20210;-58
2021/03/21 05:22:12;;;;;;;14.98;7.32;;;1.40;92.60;;;;;;5093278;28;20194;-58
2021/03/21 05:24:52;;;;;;;9.63;7.97;;;1.20;93.50;;;;;;5091174;28;20294;-56
2021/03/21 05:27:29;;;;;;;12.30;7.90;;;1.10;94.10;;;;;;5077161;28;20851;-58
2021/03/21 05:30:18;;;;;;;12.40;8.27;;;1.30;93.90;;;;;;5079982;28;20382;-57
2021/03/21 05:32:50;;;;;;;13.07;8.38;;;1.40;93.40;;;;;;5080251;28;20290;-57
2021/03/21 05:35:24;;;;;;;9.50;8.27;;;1.70;93.50;;;;;;5083937;28;20233;-58
2021/03/21 05:38:10;;;;;;;12.27;9.68;;;2.10;93.40;;;;;;5091159;28;20228;-57
2021/03/21 05:41:24;;;;;;;9.35;8.30;;;1.50;93.70;;;;;;5084226;28;20202;-58
2021/03/21 05:44:28;;;;;;;10.60;8.38;;;1.50;93.70;;;;;;5082794;28;20493;-58
2021/03/21 05:47:13;;;;;;;9.43;8.00;;;1.30;94.50;;;;;;5080635;28;20212;-59
2021/03/21 05:49:42;;;;;;;13.00;8.65;;;1.20;94.60;;;;;;5086746;28;20251;-57
2021/03/21 05:52:31;;;;;;;12.15;9.65;;;1.10;95.10;;;;;;5099242;28;20212;-57
2021/03/21 05:55:09;;;;;;;13.07;10.70;;;1.20;94.70;;;;;;5080712;28;20207;-58
2021/03/21 05:57:42;;;;;;;14.00;10.45;;;1.30;94.80;;;;;;5082490;28;20206;-57
2021/03/21 06:00:29;;;;;;;11.20;8.95;;;1.20;95.00;;;;;;5080079;28;20218;-59
2021/03/21 06:03:28;;;;;;;17.77;11.48;;;1.40;94.80;;;;;;5079681;28;20207;-59
2021/03/21 06:06:25;;;;;;;13.18;10.50;;;1.40;94.50;;;;;;5079918;28;20633;-59
2021/03/21 06:09:39;;;;;;;13.48;10.65;;;1.40;94.90;;;;;;5089866;28;20210;-60
2021/03/21 06:12:49;;;;;;;12.82;10.20;;;1.40;94.80;;;;;;5046336;28;20208;-59
2021/03/21 06:15:45;;;;;;;16.00;11.13;;;1.40;94.90;;;;;;5090835;28;20203;-59
2021/03/21 06:18:31;;;;;;;10.38;8.73;;;1.50;94.90;;;;;;5090742;28;20211;-59
2021/03/21 06:21:14;;;;;;;13.02;9.90;;;1.30;94.80;;;;;;5079755;28;20206;-59
2021/03/21 06:23:46;;;;;;;14.40;11.02;;;1.40;95.00;;;;;;5079138;28;20397;-59
2021/03/21 06:26:13;;;;;;;13.85;9.13;;;1.50;94.30;;;;;;5079464;28;20525;-60
2021/03/21 06:28:54;;;;;;;16.38;11.00;;;1.50;94.00;;;;;;5091686;28;20382;-61
2021/03/21 06:32:08;;;;;;;16.38;10.20;;;1.60;94.10;;;;;;5078923;28;20210;-59
2021/03/21 06:35:06;;;;;;;14.23;9.50;;;1.60;93.80;;;;;;5092092;28;20217;-61
2021/03/21 06:37:33;;;;;;;13.40;10.45;;;1.60;93.90;;;;;;5081805;28;20253;-60
2021/03/21 06:40:18;;;;;;;14.30;10.68;;;1.80;93.60;;;;;;5090915;28;20229;-60
2021/03/21 06:42:56;;;;;;;13.55;10.30;;;2.00;93.20;;;;;;5086519;28;20202;-59
2021/03/21 06:45:44;;;;;;;10.57;9.20;;;1.90;93.00;;;;;;5086732;28;20212;-60
2021/03/21 06:48:32;;;;;;;12.35;9.40;;;1.80;93.40;;;;;;5097865;28;20206;-61
2021/03/21 06:51:20;;;;;;;12.00;9.88;;;1.80;93.70;;;;;;5078754;28;20191;-60
2021/03/21 06:54:22;;;;;;;13.05;9.50;;;1.80;93.80;;;;;;5079930;28;20226;-60
2021/03/21 06:57:22;;;;;;;10.90;9.80;;;2.00;94.10;;;;;;5078922;28;20241;-60
2021/03/21 07:00:03;;;;;;;17.73;12.13;;;2.00;93.70;;;;;;5079191;28;20218;-60
2021/03/21 07:02:58;;;;;;;13.98;10.60;;;2.00;94.20;;;;;;5089402;28;20405;-61
2021/03/21 07:06:12;;;;;;;15.60;10.82;;;2.10;94.40;;;;;;5078267;28;20213;-60
2021/03/21 07:09:07;;;;;;;13.20;9.73;;;2.20;94.90;;;;;;5074914;28;20425;-60
2021/03/21 07:11:40;;;;;;;12.88;10.30;;;2.00;95.10;;;;;;5077228;28;20316;-61
2021/03/21 07:14:25;;;;;;;15.60;11.32;;;2.00;95.20;;;;;;5078182;28;20222;-61
2021/03/21 07:16:57;;;;;;;14.57;11.45;;;2.00;95.10;;;;;;5082832;28;20217;-61
2021/03/21 07:19:55;;;;;;;15.38;11.02;;;2.10;95.00;;;;;;5090836;28;20415;-61
2021/03/21 07:22:40;;;;;;;11.85;10.57;;;2.30;94.30;;;;;;5079210;28;20412;-61
2021/03/21 07:25:17;;;;;;;18.27;11.38;;;2.60;93.40;;;;;;5082423;28;20220;-61
2021/03/21 07:28:07;;;;;;;12.93;11.18;;;2.80;93.10;;;;;;5095708;28;20636;-61
2021/03/21 07:30:52;;;;;;;18.70;11.70;;;3.00;92.80;;;;;;5085347;28;20215;-61
2021/03/21 07:33:24;;;;;;;14.40;11.77;;;3.40;91.80;;;;;;5081816;28;20255;-61
2021/03/21 07:36:12;;;;;;;16.90;11.82;;;3.80;91.10;;;;;;5085067;28;20322;-61
2021/03/21 07:39:00;;;;;;;11.93;10.10;;;4.10;90.60;;;;;;5096671;28;20208;-61
2021/03/21 07:41:37;;;;;;;15.38;10.95;;;4.20;89.80;;;;;;5087214;28;20218;-62
2021/03/21 07:44:04;;;;;;;12.52;9.90;;;4.00;90.00;;;;;;5082245;28;20218;-62
2021/03/21 07:46:43;;;;;;;11.95;10.70;;;4.00;90.50;;;;;;5086856;28;20268;-61
2021/03/21 07:49:49;;;;;;;11.95;9.88;;;4.20;90.30;;;;;;5076794;28;20208;-60
2021/03/21 07:52:57;;;;;;;12.27;9.50;;;4.30;89.80;;;;;;5076101;28;20212;-61
2021/03/21 07:55:48;;;;;;;18.85;10.82;;;4.30;90.20;;;;;;5078259;28;20598;-62
2021/03/21 07:58:37;;;;;;;10.85;9.82;;;4.20;90.20;;;;;;5078570;28;20232;-62
2021/03/21 08:01:04;;;;;;;11.82;8.75;;;3.90;90.60;;;;;;5077803;28;20211;-63
2021/03/21 08:03:59;;;;;;;13.80;10.65;;;3.70;91.30;;;;;;5077390;28;20217;-61
2021/03/21 08:06:34;;;;;;;12.88;10.73;;;3.70;91.40;;;;;;5076074;28;20326;-62
2021/03/21 08:09:16;;;;;;;12.02;9.55;;;3.70;91.40;;;;;;5077490;28;20436;-62
2021/03/21 08:11:57;;;;;;;12.85;10.30;;;3.70;91.70;;;;;;5082861;28;20212;-64
2021/03/21 08:14:42;;;;;;;14.00;10.52;;;3.70;92.30;;;;;;5093446;28;20231;-62
2021/03/21 08:17:23;;;;;;;13.23;9.02;;;3.90;92.10;;;;;;5077832;28;20591;-61
2021/03/21 08:19:55;;;;;;;14.40;10.13;;;3.90;91.60;;;;;;5094184;28;20215;-62
2021/03/21 08:22:29;;;;;;;10.80;9.77;;;4.70;92.00;;;;;;5090737;28;20312;-62
2021/03/21 08:25:00;;;;;;;13.63;10.30;;;3.90;91.80;;;;;;5090530;28;20208;-62
2021/03/21 08:27:29;;;;;;;16.73;9.38;;;4.10;91.70;;;;;;5082637;28;20470;-63
2021/03/21 08:30:15;;;;;;;11.32;10.23;;;4.10;91.30;;;;;;5088850;28;20204;-63
2021/03/21 08:33:01;;;;;;;17.80;10.82;;;3.80;91.70;;;;;;5082492;28;20270;-62
2021/03/21 08:35:34;;;;;;;14.48;10.85;;;3.90;91.80;;;;;;5087373;28;20232;-63
2021/03/21 08:38:16;;;;;;;15.68;11.52;;;4.00;91.60;;;;;;5091452;28;20233;-62
2021/03/21 08:40:45;;;;;;;11.68;10.50;;;4.30;92.20;;;;;;5085401;28;20212;-62
2021/03/21 08:43:12;;;;;;;14.77;11.95;;;4.50;91.30;;;;;;5080611;28;20244;-63
2021/03/21 08:45:43;;;;;;;14.60;11.63;;;4.30;91.10;;;;;;5082720;28;20272;-63
2021/03/21 08:48:35;;;;;;;12.02;10.05;;;4.20;91.40;;;;;;5083699;28;20460;-61
2021/03/21 08:51:04;;;;;;;12.68;11.20;;;4.20;91.40;;;;;;5095806;28;20464;-63
2021/03/21 08:54:02;;;;;;;12.20;9.70;;;4.10;91.40;;;;;;5082398;28;20251;-61
2021/03/21 08:56:37;;;;;;;20.92;12.23;;;4.20;91.70;;;;;;5084968;28;20206;-62
2021/03/21 08:59:37;;;;;;;13.13;11.73;;;4.20;91.60;;;;;;5074865;28;20212;-62
2021/03/21 09:02:05;;;;;;;12.50;10.75;;;4.20;91.50;;;;;;5076529;28;20213;-61
2021/03/21 09:04:36;;;;;;;13.73;11.30;;;4.50;91.50;;;;;;5077353;28;20221;-62
2021/03/21 09:07:28;;;;;;;17.25;12.75;;;4.80;90.80;;;;;;5082022;28;20245;-61
2021/03/21 09:10:25;;;;;;;17.63;12.95;;;5.00;90.60;;;;;;5082378;28;20566;-63
2021/03/21 09:13:13;;;;;;;13.77;12.32;;;5.00;90.70;;;;;;5078207;28;20374;-62
2021/03/21 09:15:45;;;;;;;13.55;11.32;;;5.00;91.90;;;;;;5086928;28;20258;-62
2021/03/21 09:18:24;;;;;;;13.90;10.82;;;4.80;93.10;;;;;;5087992;28;20210;-63
2021/03/21 09:21:27;;;;;;;17.05;13.30;;;5.00;92.80;;;;;;5080795;28;20209;-63
2021/03/21 09:23:57;;;;;;;16.50;13.27;;;4.80;93.30;;;;;;5089382;28;20215;-62
2021/03/21 09:26:35;;;;;;;19.15;14.10;;;4.60;94.00;;;;;;5077880;28;20259;-62
2021/03/21 09:29:24;;;;;;;16.20;11.90;;;4.30;95.30;;;;;;5076653;28;20262;-62
2021/03/21 09:31:55;;;;;;;24.77;15.77;;;4.30;95.70;;;;;;5087726;28;20210;-62
2021/03/21 09:34:31;;;;;;;14.50;12.10;;;4.10;96.60;;;;;;5091043;28;20253;-63
2021/03/21 09:37:09;;;;;;;22.45;16.25;;;4.00;97.10;;;;;;5091649;28;20245;-63
2021/03/21 09:39:43;;;;;;;16.23;13.30;;;3.90;97.60;;;;;;5075773;28;20209;-63
2021/03/21 09:42:13;;;;;;;20.80;15.20;;;3.90;97.70;;;;;;5078242;28;20231;-64
2021/03/21 09:44:45;;;;;;;18.95;15.38;;;3.70;97.90;;;;;;5083124;28;20225;-63
2021/03/21 09:47:40;;;;;;;17.25;13.35;;;3.90;98.10;;;;;;5082713;28;20209;-63
2021/03/21 09:50:34;;;;;;;18.38;14.27;;;4.00;97.80;;;;;;5086658;28;20214;-64
2021/03/21 09:53:35;;;;;;;18.27;12.35;;;3.80;98.10;;;;;;5091888;28;20505;-63
2021/03/21 09:56:25;;;;;;;16.08;13.70;;;3.80;98.50;;;;;;5075049;28;20561;-63
2021/03/21 09:59:24;;;;;;;15.93;12.20;;;3.90;98.40;;;;;;5091742;28;20230;-64
2021/03/21 10:02:16;;;;;;;18.02;14.10;;;3.90;98.50;;;;;;5072512;28;20292;-65
2021/03/21 10:04:55;;;;;;;24.27;15.90;;;3.60;98.70;;;;;;5087569;28;20213;-64
2021/03/21 10:07:59;;;;;;;18.45;14.43;;;3.50;99.40;;;;;;5088277;28;20238;-65
2021/03/21 10:10:45;;;;;;;19.42;13.13;;;3.60;99.40;;;;;;5089247;28;20530;-66
2021/03/21 10:13:30;;;;;;;20.45;14.65;;;3.60;99.20;;;;;;5081787;28;20228;-65
2021/03/21 10:16:15;;;;;;;18.85;13.85;;;3.60;99.80;;;;;;5091763;28;20243;-66
2021/03/21 10:18:55;;;;;;;23.08;15.15;;;3.80;99.60;;;;;;5098834;28;20215;-66
2021/03/21 10:21:22;;;;;;;21.20;15.63;;;4.00;99.50;;;;;;5080761;28;20214;-66
2021/03/21 10:23:49;;;;;;;23.20;16.42;;;3.70;99.60;;;;;;5087119;28;20236;-66
2021/03/21 10:26:21;;;;;;;39.25;21.90;;;3.70;99.90;;;;;;5083440;28;20579;-65
2021/03/21 10:29:00;;;;;;;42.88;23.48;;;3.60;99.90;;;;;;5081578;28;20217;-64
2021/03/21 10:31:35;;;;;;;27.10;17.85;;;3.70;99.90;;;;;;5079404;28;20212;-66
2021/03/21 10:34:02;;;;;;;22.85;17.15;;;3.80;99.90;;;;;;5094096;28;20230;-65
2021/03/21 10:36:41;;;;;;;30.35;17.98;;;3.60;99.90;;;;;;5086040;28;20249;-65
2021/03/21 10:39:32;;;;;;;21.20;16.42;;;3.60;99.90;;;;;;5077983;28;20274;-65
2021/03/21 10:42:13;;;;;;;17.70;14.05;;;3.70;99.90;;;;;;5084558;28;20267;-65
2021/03/21 10:44:41;;;;;;;21.58;14.88;;;3.80;99.90;;;;;;5079226;28;20225;-67
2021/03/21 10:47:25;;;;;;;17.80;14.07;;;3.90;99.90;;;;;;5080798;28;20209;-66
2021/03/21 10:49:57;;;;;;;18.23;15.10;;;4.10;99.90;;;;;;5086726;28;20215;-66
2021/03/21 10:52:28;;;;;;;19.60;15.65;;;4.00;99.90;;;;;;5084895;28;20405;-65
2021/03/21 10:57:42;;;;;;;18.15;13.70;;;4.20;99.90;;;;;;5078474;28;20215;-67
2021/03/21 11:00:29;;;;;;;17.27;14.50;;;4.10;99.90;;;;;;5079435;28;20208;-65
2021/03/21 11:03:05;;;;;;;21.98;14.75;;;4.10;99.90;;;;;;5078000;28;20208;-65
2021/03/21 11:05:34;;;;;;;21.25;15.82;;;4.20;99.90;;;;;;5077705;28;20233;-65
2021/03/21 11:08:17;;;;;;;21.40;17.10;;;4.20;99.90;;;;;;5082148;28;20415;-64
2021/03/21 11:10:55;;;;;;;18.00;15.07;;;4.40;99.90;;;;;;5094715;28;20530;-64
2021/03/21 11:13:26;;;;;;;25.80;17.02;;;4.60;99.90;;;;;;5088576;28;20389;-64
2021/03/21 11:15:53;;;;;;;19.58;15.05;;;4.70;99.50;;;;;;5077476;28;20209;-64
2021/03/21 11:18:27;;;;;;;17.00;13.20;;;4.70;99.40;;;;;;5083527;28;20205;-65
2021/03/21 11:21:20;;;;;;;15.10;12.73;;;4.80;99.10;;;;;;5085981;28;20231;-65
2021/03/21 11:23:49;;;;;;;23.77;16.17;;;4.40;99.30;;;;;;5082329;28;20205;-65
2021/03/21 11:26:24;;;;;;;27.10;17.73;;;4.10;99.90;;;;;;5088016;28;20266;-66
2021/03/21 11:29:07;;;;;;;20.25;15.68;;;4.10;99.90;;;;;;5078419;28;20271;-65
2021/03/21 11:31:43;;;;;;;21.60;14.90;;;4.10;99.90;;;;;;5078370;28;20224;-65
2021/03/21 11:34:19;;;;;;;23.88;17.02;;;4.00;99.90;;;;;;5085466;28;20516;-65
2021/03/21 11:37:12;;;;;;;23.98;19.35;;;4.10;99.90;;;;;;5080534;28;20289;-65
2021/03/21 11:40:02;;;;;;;20.35;16.35;;;4.00;99.90;;;;;;5088554;28;20211;-66
2021/03/21 11:42:36;;;;;;;25.88;15.75;;;4.00;99.90;;;;;;5078463;28;20206;-66
2021/03/21 11:45:25;;;;;;;20.55;14.70;;;4.30;99.90;;;;;;5086866;28;20215;-65
2021/03/21 11:48:32;;;;;;;22.60;17.23;;;4.50;99.90;;;;;;5086093;28;20294;-67
2021/03/21 11:50:59;;;;;;;20.13;15.45;;;4.40;99.90;;;;;;5090990;28;20206;-65
2021/03/21 11:53:32;;;;;;;22.13;16.08;;;4.40;99.90;;;;;;5075973;28;20233;-66
2021/03/21 11:56:27;;;;;;;26.13;18.02;;;4.40;99.90;;;;;;5091982;28;20286;-65
2021/03/21 11:59:00;;;;;;;22.77;17.40;;;4.30;99.90;;;;;;5076313;28;20207;-65
2021/03/21 12:01:46;;;;;;;25.30;18.65;;;4.40;99.90;;;;;;5080729;28;20205;-65
2021/03/21 12:04:22;;;;;;;23.55;20.08;;;4.50;99.90;;;;;;5084203;28;20212;-66
2021/03/21 12:06:58;;;;;;;22.73;17.23;;;4.60;99.90;;;;;;5076306;28;20211;-66
2021/03/21 12:09:27;;;;;;;21.02;15.93;;;4.70;99.90;;;;;;5078314;28;20205;-65
2021/03/21 12:11:54;;;;;;;25.38;16.50;;;4.80;99.90;;;;;;5079797;28;20208;-66
2021/03/21 12:14:44;;;;;;;25.13;19.75;;;4.70;99.90;;;;;;5085573;28;20518;-66
2021/03/21 12:17:22;;;;;;;20.55;16.10;;;5.10;99.90;;;;;;5079908;28;20203;-66
2021/03/21 12:19:50;;;;;;;30.45;17.00;;;5.10;99.60;;;;;;5076519;28;20446;-66
2021/03/21 12:22:32;;;;;;;24.15;19.83;;;5.00;99.40;;;;;;5084283;28;20216;-66
2021/03/21 12:25:02;;;;;;;21.88;15.85;;;4.70;99.90;;;;;;5075835;28;20259;-65
2021/03/21 12:27:35;;;;;;;23.70;18.25;;;4.90;99.90;;;;;;5087156;28;20222;-66
2021/03/21 12:30:41;;;;;;;25.42;17.73;;;4.90;99.90;;;;;;5089715;28;20504;-67
2021/03/21 12:33:12;;;;;;;24.25;17.30;;;4.70;99.90;;;;;;5087973;28;20210;-67
2021/03/21 12:35:41;;;;;;;23.75;17.77;;;4.50;99.90;;;;;;5090966;28;20241;-67
2021/03/21 12:38:33;;;;;;;25.83;18.60;;;4.50;99.90;;;;;;5080914;28;20205;-67
2021/03/21 12:41:20;;;;;;;24.83;17.55;;;4.50;99.90;;;;;;5079740;28;20322;-67
2021/03/21 12:44:12;;;;;;;22.17;15.48;;;4.40;99.90;;;;;;5086669;28;20217;-66
2021/03/21 12:46:51;;;;;;;21.58;16.85;;;4.70;99.90;;;;;;5082063;28;20213;-67
2021/03/21 12:49:51;;;;;;;22.95;16.40;;;4.60;99.90;;;;;;5085636;28;20205;-66
2021/03/21 12:52:42;;;;;;;19.73;15.73;;;4.60;99.90;;;;;;5087556;28;20228;-67
2021/03/21 12:55:12;;;;;;;21.98;17.40;;;4.60;99.90;;;;;;5084348;28;20464;-67
2021/03/21 12:57:39;;;;;;;20.08;14.73;;;4.50;99.90;;;;;;5086877;28;20444;-67
2021/03/21 13:00:07;;;;;;;25.75;15.38;;;4.40;99.90;;;;;;5089640;28;20511;-68
2021/03/21 13:02:36;;;;;;;19.38;16.00;;;4.30;99.90;;;;;;5083859;28;20209;-68
2021/03/21 13:05:13;;;;;;;22.27;16.75;;;4.20;99.90;;;;;;5077174;28;20200;-67
2021/03/21 13:07:42;;;;;;;19.65;16.50;;;4.30;99.90;;;;;;5085677;28;20326;-68
2021/03/21 13:10:09;;;;;;;19.08;15.35;;;4.40;99.90;;;;;;5090361;28;20444;-68
2021/03/21 13:12:36;;;;;;;24.00;16.45;;;4.50;99.90;;;;;;5078568;28;20401;-67
2021/03/21 13:15:03;;;;;;;23.77;17.20;;;4.60;99.90;;;;;;5091173;28;20236;-67
2021/03/21 13:17:29;;;;;;;23.25;18.77;;;4.50;99.90;;;;;;5094355;28;20390;-67
2021/03/21 13:19:56;;;;;;;24.15;18.70;;;4.50;99.90;;;;;;5088073;28;20213;-69
2021/03/21 13:22:23;;;;;;;24.55;18.35;;;4.40;99.90;;;;;;5082972;28;20206;-68
2021/03/21 13:24:49;;;;;;;23.70;18.27;;;4.90;99.90;;;;;;5091964;28;20198;-69
2021/03/21 13:27:16;;;;;;;22.38;16.60;;;4.10;99.90;;;;;;5087103;28;20267;-69
2021/03/21 13:29:42;;;;;;;25.77;18.77;;;4.10;99.90;;;;;;5076473;28;20208;-69
2021/03/21 13:32:12;;;;;;;26.85;20.60;;;4.00;99.90;;;;;;5082764;28;20197;-68
2021/03/21 13:34:39;;;;;;;27.33;20.40;;;4.00;99.90;;;;;;5093349;28;20290;-69
2021/03/21 13:37:20;;;;;;;29.55;22.10;;;4.00;99.90;;;;;;5091710;28;20240;-68
2021/03/21 13:39:50;;;;;;;30.55;21.77;;;4.10;99.90;;;;;;5078730;28;20420;-68
2021/03/21 13:42:18;;;;;;;31.00;22.30;;;4.30;99.90;;;;;;5078124;28;20208;-69
2021/03/21 13:44:45;;;;;;;30.65;23.20;;;4.30;99.90;;;;;;5075787;28;20268;-68